sensor_id;sensor_type;location;lat;lon;timestamp;P1;durP1;ratioP1;P2;durP2;ratioP2
31091;SDS011;67728;53.122;12.776;2023-04-12T00:00:44;269.13;;;49.03;;
31091;SDS011;67728;53.122;12.776;2023-04-12T00:02:16;267.40;;;48.70;;
31091;SDS011;67728;53.122;12.776;2023-04-12T00:03:46;267.17;;;49.00;;
31091;SDS011;67728;53.122;12.776;2023-04-12T00:05:19;266.93;;;48.77;;
31091;SDS011;67728;53.122;12.776;2023-04-12T00:06:51;266.73;;;49.10;;
31091;SDS011;67728;53.122;12.776;2023-04-12T00:08:23;264.70;;;48.33;;
31091;SDS011;67728;53.122;12.776;2023-04-12T00:09:55;265.27;;;48.50;;
31091;SDS011;67728;53.122;12.776;2023-04-12T00:11:26;267.27;;;49.00;;
31091;SDS011;67728;53.122;12.776;2023-04-12T00:12:58;265.63;;;49.10;;
31091;SDS011;67728;53.122;12.776;2023-04-12T00:14:30;269.67;;;49.47;;
31091;SDS011;67728;53.122;12.776;2023-04-12T00:16:03;264.33;;;48.37;;
31091;SDS011;67728;53.122;12.776;2023-04-12T00:17:35;265.37;;;48.63;;
31091;SDS011;67728;53.122;12.776;2023-04-12T00:19:06;264.50;;;48.40;;
31091;SDS011;67728;53.122;12.776;2023-04-12T00:20:38;262.57;;;48.07;;
31091;SDS011;67728;53.122;12.776;2023-04-12T00:22:10;264.30;;;48.53;;
31091;SDS011;67728;53.122;12.776;2023-04-12T00:23:41;262.87;;;48.67;;
31091;SDS011;67728;53.122;12.776;2023-04-12T00:25:14;267.97;;;49.13;;
31091;SDS011;67728;53.122;12.776;2023-04-12T00:26:45;266.63;;;48.93;;
31091;SDS011;67728;53.122;12.776;2023-04-12T00:28:16;262.60;;;48.23;;
31091;SDS011;67728;53.122;12.776;2023-04-12T00:29:48;267.17;;;48.97;;
31091;SDS011;67728;53.122;12.776;2023-04-12T00:31:21;264.20;;;48.70;;
31091;SDS011;67728;53.122;12.776;2023-04-12T00:32:53;264.17;;;48.77;;
31091;SDS011;67728;53.122;12.776;2023-04-12T00:34:24;262.90;;;48.30;;
31091;SDS011;67728;53.122;12.776;2023-04-12T00:35:55;263.83;;;48.60;;
31091;SDS011;67728;53.122;12.776;2023-04-12T00:37:27;263.00;;;48.20;;
31091;SDS011;67728;53.122;12.776;2023-04-12T00:38:58;265.60;;;48.73;;
31091;SDS011;67728;53.122;12.776;2023-04-12T00:40:30;267.20;;;49.03;;
31091;SDS011;67728;53.122;12.776;2023-04-12T00:42:02;265.83;;;49.10;;
31091;SDS011;67728;53.122;12.776;2023-04-12T00:43:34;265.37;;;48.50;;
31091;SDS011;67728;53.122;12.776;2023-04-12T00:45:06;262.77;;;48.20;;
31091;SDS011;67728;53.122;12.776;2023-04-12T00:46:40;263.70;;;48.33;;
31091;SDS011;67728;53.122;12.776;2023-04-12T00:48:12;263.40;;;48.47;;
31091;SDS011;67728;53.122;12.776;2023-04-12T00:49:44;263.20;;;48.07;;
31091;SDS011;67728;53.122;12.776;2023-04-12T00:51:16;266.47;;;48.67;;
31091;SDS011;67728;53.122;12.776;2023-04-12T00:52:51;266.67;;;48.83;;
31091;SDS011;67728;53.122;12.776;2023-04-12T00:54:24;264.57;;;48.50;;
31091;SDS011;67728;53.122;12.776;2023-04-12T00:55:56;264.70;;;48.63;;
31091;SDS011;67728;53.122;12.776;2023-04-12T00:57:29;263.93;;;48.57;;
31091;SDS011;67728;53.122;12.776;2023-04-12T00:59:04;265.37;;;48.87;;
31091;SDS011;67728;53.122;12.776;2023-04-12T01:00:35;265.80;;;48.67;;
31091;SDS011;67728;53.122;12.776;2023-04-12T01:02:08;263.73;;;48.17;;
31091;SDS011;67728;53.122;12.776;2023-04-12T01:03:40;265.27;;;48.60;;
31091;SDS011;67728;53.122;12.776;2023-04-12T01:05:12;265.93;;;48.60;;
31091;SDS011;67728;53.122;12.776;2023-04-12T01:06:54;265.33;;;48.60;;
31091;SDS011;67728;53.122;12.776;2023-04-12T01:08:38;267.07;;;48.90;;
31091;SDS011;67728;53.122;12.776;2023-04-12T01:10:27;265.97;;;49.00;;
31091;SDS011;67728;53.122;12.776;2023-04-12T01:12:12;264.40;;;48.53;;
31091;SDS011;67728;53.122;12.776;2023-04-12T01:13:51;262.87;;;48.63;;
31091;SDS011;67728;53.122;12.776;2023-04-12T01:15:28;265.10;;;49.00;;
31091;SDS011;67728;53.122;12.776;2023-04-12T01:17:03;262.63;;;48.40;;
31091;SDS011;67728;53.122;12.776;2023-04-12T01:18:39;264.60;;;48.70;;
31091;SDS011;67728;53.122;12.776;2023-04-12T01:20:15;263.70;;;48.53;;
31091;SDS011;67728;53.122;12.776;2023-04-12T01:21:52;263.27;;;48.70;;
31091;SDS011;67728;53.122;12.776;2023-04-12T01:23:42;262.87;;;48.40;;
31091;SDS011;67728;53.122;12.776;2023-04-12T01:25:29;260.43;;;48.50;;
31091;SDS011;67728;53.122;12.776;2023-04-12T01:28:57;265.37;;;48.70;;
31091;SDS011;67728;53.122;12.776;2023-04-12T01:30:31;267.00;;;49.03;;
31091;SDS011;67728;53.122;12.776;2023-04-12T01:32:04;263.57;;;48.27;;
31091;SDS011;67728;53.122;12.776;2023-04-12T01:33:38;263.53;;;48.30;;
31091;SDS011;67728;53.122;12.776;2023-04-12T01:35:12;264.23;;;48.20;;
31091;SDS011;67728;53.122;12.776;2023-04-12T01:36:44;264.83;;;48.40;;
31091;SDS011;67728;53.122;12.776;2023-04-12T01:38:18;264.57;;;48.47;;
31091;SDS011;67728;53.122;12.776;2023-04-12T01:39:51;263.37;;;48.50;;
31091;SDS011;67728;53.122;12.776;2023-04-12T01:41:23;262.33;;;48.40;;
31091;SDS011;67728;53.122;12.776;2023-04-12T01:43:05;260.90;;;48.40;;
31091;SDS011;67728;53.122;12.776;2023-04-12T01:44:37;259.83;;;48.20;;
31091;SDS011;67728;53.122;12.776;2023-04-12T01:46:09;260.63;;;48.23;;
31091;SDS011;67728;53.122;12.776;2023-04-12T01:47:42;257.97;;;48.10;;
31091;SDS011;67728;53.122;12.776;2023-04-12T01:49:14;257.00;;;47.73;;
31091;SDS011;67728;53.122;12.776;2023-04-12T01:50:49;261.13;;;48.80;;
31091;SDS011;67728;53.122;12.776;2023-04-12T01:52:31;260.33;;;48.47;;
31091;SDS011;67728;53.122;12.776;2023-04-12T01:54:11;257.80;;;48.23;;
31091;SDS011;67728;53.122;12.776;2023-04-12T01:55:47;260.63;;;48.30;;
31091;SDS011;67728;53.122;12.776;2023-04-12T01:57:20;257.47;;;48.07;;
31091;SDS011;67728;53.122;12.776;2023-04-12T01:58:55;259.00;;;48.53;;
31091;SDS011;67728;53.122;12.776;2023-04-12T02:00:29;257.67;;;47.97;;
31091;SDS011;67728;53.122;12.776;2023-04-12T02:02:02;256.63;;;48.07;;
31091;SDS011;67728;53.122;12.776;2023-04-12T02:03:34;257.37;;;48.50;;
31091;SDS011;67728;53.122;12.776;2023-04-12T02:05:07;259.77;;;48.57;;
31091;SDS011;67728;53.122;12.776;2023-04-12T02:06:40;257.07;;;48.37;;
31091;SDS011;67728;53.122;12.776;2023-04-12T02:08:12;255.50;;;48.17;;
31091;SDS011;67728;53.122;12.776;2023-04-12T02:09:44;257.27;;;49.13;;
31091;SDS011;67728;53.122;12.776;2023-04-12T02:11:16;252.40;;;47.70;;
31091;SDS011;67728;53.122;12.776;2023-04-12T02:12:47;254.37;;;48.00;;
31091;SDS011;67728;53.122;12.776;2023-04-12T02:14:22;251.87;;;47.80;;
31091;SDS011;67728;53.122;12.776;2023-04-12T02:15:53;254.43;;;48.07;;
31091;SDS011;67728;53.122;12.776;2023-04-12T02:17:26;252.30;;;47.40;;
31091;SDS011;67728;53.122;12.776;2023-04-12T02:18:58;253.63;;;47.40;;
31091;SDS011;67728;53.122;12.776;2023-04-12T02:20:30;252.03;;;47.30;;
31091;SDS011;67728;53.122;12.776;2023-04-12T02:22:02;250.83;;;47.13;;
31091;SDS011;67728;53.122;12.776;2023-04-12T02:23:34;255.10;;;47.87;;
31091;SDS011;67728;53.122;12.776;2023-04-12T02:25:05;254.70;;;47.50;;
31091;SDS011;67728;53.122;12.776;2023-04-12T02:26:37;254.27;;;47.40;;
31091;SDS011;67728;53.122;12.776;2023-04-12T02:28:09;255.83;;;47.90;;
31091;SDS011;67728;53.122;12.776;2023-04-12T02:29:42;254.57;;;47.70;;
31091;SDS011;67728;53.122;12.776;2023-04-12T02:31:13;254.67;;;47.67;;
31091;SDS011;67728;53.122;12.776;2023-04-12T02:32:45;253.43;;;47.43;;
31091;SDS011;67728;53.122;12.776;2023-04-12T02:34:17;251.43;;;47.10;;
31091;SDS011;67728;53.122;12.776;2023-04-12T02:35:50;256.23;;;48.27;;
31091;SDS011;67728;53.122;12.776;2023-04-12T02:37:23;252.23;;;47.17;;
31091;SDS011;67728;53.122;12.776;2023-04-12T02:38:56;252.43;;;47.53;;
31091;SDS011;67728;53.122;12.776;2023-04-12T02:40:28;249.57;;;46.90;;
31091;SDS011;67728;53.122;12.776;2023-04-12T02:41:59;249.77;;;47.33;;
31091;SDS011;67728;53.122;12.776;2023-04-12T02:43:31;248.93;;;47.03;;
31091;SDS011;67728;53.122;12.776;2023-04-12T02:45:05;251.17;;;47.23;;
31091;SDS011;67728;53.122;12.776;2023-04-12T02:46:37;250.53;;;47.27;;
31091;SDS011;67728;53.122;12.776;2023-04-12T02:48:09;251.70;;;47.60;;
31091;SDS011;67728;53.122;12.776;2023-04-12T02:49:40;251.40;;;47.50;;
31091;SDS011;67728;53.122;12.776;2023-04-12T02:51:12;248.37;;;49.77;;
31091;SDS011;67728;53.122;12.776;2023-04-12T02:52:43;248.93;;;47.63;;
31091;SDS011;67728;53.122;12.776;2023-04-12T02:54:15;245.80;;;46.97;;
31091;SDS011;67728;53.122;12.776;2023-04-12T02:55:47;246.40;;;47.30;;
31091;SDS011;67728;53.122;12.776;2023-04-12T02:57:19;245.33;;;47.20;;
31091;SDS011;67728;53.122;12.776;2023-04-12T02:58:50;249.20;;;47.10;;
31091;SDS011;67728;53.122;12.776;2023-04-12T03:00:23;244.73;;;47.47;;
31091;SDS011;67728;53.122;12.776;2023-04-12T03:01:56;246.17;;;47.30;;
31091;SDS011;67728;53.122;12.776;2023-04-12T03:03:27;252.37;;;46.60;;
31091;SDS011;67728;53.122;12.776;2023-04-12T03:05:01;254.40;;;46.70;;
31091;SDS011;67728;53.122;12.776;2023-04-12T03:06:32;254.97;;;46.67;;
31091;SDS011;67728;53.122;12.776;2023-04-12T03:08:04;252.53;;;46.57;;
31091;SDS011;67728;53.122;12.776;2023-04-12T03:09:36;255.53;;;46.90;;
31091;SDS011;67728;53.122;12.776;2023-04-12T03:11:07;255.57;;;46.97;;
31091;SDS011;67728;53.122;12.776;2023-04-12T03:12:39;255.57;;;46.87;;
31091;SDS011;67728;53.122;12.776;2023-04-12T03:14:11;255.17;;;46.80;;
31091;SDS011;67728;53.122;12.776;2023-04-12T03:15:45;254.00;;;46.70;;
31091;SDS011;67728;53.122;12.776;2023-04-12T03:17:17;252.90;;;46.43;;
31091;SDS011;67728;53.122;12.776;2023-04-12T03:18:47;251.70;;;46.20;;
31091;SDS011;67728;53.122;12.776;2023-04-12T03:20:20;250.77;;;46.07;;
31091;SDS011;67728;53.122;12.776;2023-04-12T03:21:53;251.17;;;46.73;;
31091;SDS011;67728;53.122;12.776;2023-04-12T03:23:25;257.73;;;61.20;;
31091;SDS011;67728;53.122;12.776;2023-04-12T03:24:57;254.73;;;54.23;;
31091;SDS011;67728;53.122;12.776;2023-04-12T03:26:27;251.33;;;46.70;;
31091;SDS011;67728;53.122;12.776;2023-04-12T03:27:59;251.77;;;46.63;;
31091;SDS011;67728;53.122;12.776;2023-04-12T03:29:31;252.87;;;46.80;;
31091;SDS011;67728;53.122;12.776;2023-04-12T03:31:04;254.57;;;47.37;;
31091;SDS011;67728;53.122;12.776;2023-04-12T03:32:36;254.57;;;47.50;;
31091;SDS011;67728;53.122;12.776;2023-04-12T03:34:08;250.97;;;47.20;;
31091;SDS011;67728;53.122;12.776;2023-04-12T03:35:40;259.93;;;48.60;;
31091;SDS011;67728;53.122;12.776;2023-04-12T03:37:12;253.03;;;47.00;;
31091;SDS011;67728;53.122;12.776;2023-04-12T03:38:44;254.67;;;47.10;;
31091;SDS011;67728;53.122;12.776;2023-04-12T03:40:14;251.57;;;46.83;;
31091;SDS011;67728;53.122;12.776;2023-04-12T03:41:46;249.40;;;47.00;;
31091;SDS011;67728;53.122;12.776;2023-04-12T03:43:17;250.07;;;46.90;;
31091;SDS011;67728;53.122;12.776;2023-04-12T03:44:48;250.63;;;46.93;;
31091;SDS011;67728;53.122;12.776;2023-04-12T03:46:22;249.23;;;47.20;;
31091;SDS011;67728;53.122;12.776;2023-04-12T03:47:53;250.80;;;46.83;;
31091;SDS011;67728;53.122;12.776;2023-04-12T03:49:25;249.40;;;46.73;;
31091;SDS011;67728;53.122;12.776;2023-04-12T03:50:56;248.20;;;46.93;;
31091;SDS011;67728;53.122;12.776;2023-04-12T03:52:28;247.83;;;46.40;;
31091;SDS011;67728;53.122;12.776;2023-04-12T03:54:00;244.47;;;46.97;;
31091;SDS011;67728;53.122;12.776;2023-04-12T03:55:33;245.60;;;53.00;;
31091;SDS011;67728;53.122;12.776;2023-04-12T03:57:06;252.53;;;46.93;;
31091;SDS011;67728;53.122;12.776;2023-04-12T03:58:38;253.73;;;46.80;;
31091;SDS011;67728;53.122;12.776;2023-04-12T04:00:09;253.03;;;46.53;;
31091;SDS011;67728;53.122;12.776;2023-04-12T04:01:43;253.07;;;47.67;;
31091;SDS011;67728;53.122;12.776;2023-04-12T04:03:15;253.70;;;46.50;;
31091;SDS011;67728;53.122;12.776;2023-04-12T04:04:47;255.77;;;46.97;;
31091;SDS011;67728;53.122;12.776;2023-04-12T04:06:19;255.70;;;47.00;;
31091;SDS011;67728;53.122;12.776;2023-04-12T04:07:50;255.87;;;47.10;;
31091;SDS011;67728;53.122;12.776;2023-04-12T04:09:22;253.80;;;46.67;;
31091;SDS011;67728;53.122;12.776;2023-04-12T04:10:55;254.27;;;46.87;;
31091;SDS011;67728;53.122;12.776;2023-04-12T04:12:27;252.87;;;46.63;;
31091;SDS011;67728;53.122;12.776;2023-04-12T04:13:58;257.30;;;48.17;;
31091;SDS011;67728;53.122;12.776;2023-04-12T04:15:30;255.77;;;47.03;;
31091;SDS011;67728;53.122;12.776;2023-04-12T04:17:03;259.30;;;48.83;;
31091;SDS011;67728;53.122;12.776;2023-04-12T04:18:35;255.53;;;46.93;;
31091;SDS011;67728;53.122;12.776;2023-04-12T04:20:06;255.67;;;47.00;;
31091;SDS011;67728;53.122;12.776;2023-04-12T04:21:42;257.73;;;47.40;;
31091;SDS011;67728;53.122;12.776;2023-04-12T04:23:14;256.83;;;47.20;;
31091;SDS011;67728;53.122;12.776;2023-04-12T04:24:46;257.47;;;47.10;;
31091;SDS011;67728;53.122;12.776;2023-04-12T04:26:17;253.80;;;46.60;;
31091;SDS011;67728;53.122;12.776;2023-04-12T04:27:49;254.50;;;46.87;;
31091;SDS011;67728;53.122;12.776;2023-04-12T04:29:21;254.10;;;46.80;;
31091;SDS011;67728;53.122;12.776;2023-04-12T04:30:52;253.80;;;46.80;;
31091;SDS011;67728;53.122;12.776;2023-04-12T04:32:26;253.33;;;46.70;;
31091;SDS011;67728;53.122;12.776;2023-04-12T04:33:58;251.50;;;46.53;;
31091;SDS011;67728;53.122;12.776;2023-04-12T04:35:32;250.50;;;46.93;;
31091;SDS011;67728;53.122;12.776;2023-04-12T04:37:03;252.30;;;46.67;;
31091;SDS011;67728;53.122;12.776;2023-04-12T04:38:34;253.83;;;48.07;;
31091;SDS011;67728;53.122;12.776;2023-04-12T04:40:06;252.57;;;46.80;;
31091;SDS011;67728;53.122;12.776;2023-04-12T04:41:40;257.13;;;47.67;;
31091;SDS011;67728;53.122;12.776;2023-04-12T04:43:12;252.67;;;46.77;;
31091;SDS011;67728;53.122;12.776;2023-04-12T04:44:47;253.43;;;46.73;;
31091;SDS011;67728;53.122;12.776;2023-04-12T04:46:20;251.83;;;46.63;;
31091;SDS011;67728;53.122;12.776;2023-04-12T04:47:52;251.93;;;46.80;;
31091;SDS011;67728;53.122;12.776;2023-04-12T04:49:24;253.20;;;46.90;;
31091;SDS011;67728;53.122;12.776;2023-04-12T04:50:55;249.90;;;46.37;;
31091;SDS011;67728;53.122;12.776;2023-04-12T04:52:27;250.10;;;46.30;;
31091;SDS011;67728;53.122;12.776;2023-04-12T04:53:58;250.70;;;46.47;;
31091;SDS011;67728;53.122;12.776;2023-04-12T04:55:31;250.27;;;46.20;;
31091;SDS011;67728;53.122;12.776;2023-04-12T04:57:02;250.20;;;46.17;;
31091;SDS011;67728;53.122;12.776;2023-04-12T04:58:36;249.07;;;46.50;;
31091;SDS011;67728;53.122;12.776;2023-04-12T05:00:09;250.07;;;47.17;;
31091;SDS011;67728;53.122;12.776;2023-04-12T05:01:41;254.33;;;47.13;;
31091;SDS011;67728;53.122;12.776;2023-04-12T05:03:14;251.07;;;46.40;;
31091;SDS011;67728;53.122;12.776;2023-04-12T05:04:45;250.87;;;46.77;;
31091;SDS011;67728;53.122;12.776;2023-04-12T05:06:17;250.87;;;46.43;;
31091;SDS011;67728;53.122;12.776;2023-04-12T05:07:49;251.13;;;46.47;;
31091;SDS011;67728;53.122;12.776;2023-04-12T05:09:21;250.77;;;46.40;;
31091;SDS011;67728;53.122;12.776;2023-04-12T05:10:54;251.00;;;46.63;;
31091;SDS011;67728;53.122;12.776;2023-04-12T05:12:26;247.67;;;45.90;;
31091;SDS011;67728;53.122;12.776;2023-04-12T05:13:58;249.07;;;46.10;;
31091;SDS011;67728;53.122;12.776;2023-04-12T05:15:29;250.00;;;46.33;;
31091;SDS011;67728;53.122;12.776;2023-04-12T05:17:00;252.33;;;46.83;;
31091;SDS011;67728;53.122;12.776;2023-04-12T05:18:33;249.30;;;46.43;;
31091;SDS011;67728;53.122;12.776;2023-04-12T05:20:05;249.73;;;46.43;;
31091;SDS011;67728;53.122;12.776;2023-04-12T05:21:37;255.57;;;47.37;;
31091;SDS011;67728;53.122;12.776;2023-04-12T05:23:09;251.33;;;46.97;;
31091;SDS011;67728;53.122;12.776;2023-04-12T05:24:41;249.87;;;46.67;;
31091;SDS011;67728;53.122;12.776;2023-04-12T05:26:13;245.70;;;46.20;;
31091;SDS011;67728;53.122;12.776;2023-04-12T05:27:45;249.67;;;46.93;;
31091;SDS011;67728;53.122;12.776;2023-04-12T05:29:17;245.03;;;46.17;;
31091;SDS011;67728;53.122;12.776;2023-04-12T05:30:49;248.20;;;46.30;;
31091;SDS011;67728;53.122;12.776;2023-04-12T05:32:20;245.63;;;46.17;;
31091;SDS011;67728;53.122;12.776;2023-04-12T05:33:53;246.00;;;46.60;;
31091;SDS011;67728;53.122;12.776;2023-04-12T05:35:25;245.90;;;46.57;;
31091;SDS011;67728;53.122;12.776;2023-04-12T05:36:56;256.70;;;47.40;;
31091;SDS011;67728;53.122;12.776;2023-04-12T05:38:29;254.07;;;46.90;;
31091;SDS011;67728;53.122;12.776;2023-04-12T05:40:00;248.97;;;46.47;;
31091;SDS011;67728;53.122;12.776;2023-04-12T05:41:35;258.23;;;48.00;;
31091;SDS011;67728;53.122;12.776;2023-04-12T05:43:06;251.60;;;46.87;;
31091;SDS011;67728;53.122;12.776;2023-04-12T05:44:41;251.90;;;46.83;;
31091;SDS011;67728;53.122;12.776;2023-04-12T05:46:14;249.60;;;47.00;;
31091;SDS011;67728;53.122;12.776;2023-04-12T05:47:45;251.37;;;46.73;;
31091;SDS011;67728;53.122;12.776;2023-04-12T05:49:18;247.07;;;47.03;;
31091;SDS011;67728;53.122;12.776;2023-04-12T05:50:50;249.70;;;46.97;;
31091;SDS011;67728;53.122;12.776;2023-04-12T05:52:22;251.77;;;47.47;;
31091;SDS011;67728;53.122;12.776;2023-04-12T05:53:53;251.43;;;47.30;;
31091;SDS011;67728;53.122;12.776;2023-04-12T05:55:25;252.27;;;47.00;;
31091;SDS011;67728;53.122;12.776;2023-04-12T05:56:57;256.50;;;52.30;;
31091;SDS011;67728;53.122;12.776;2023-04-12T05:58:28;249.80;;;47.07;;
31091;SDS011;67728;53.122;12.776;2023-04-12T06:00:00;249.30;;;47.00;;
31091;SDS011;67728;53.122;12.776;2023-04-12T06:01:35;252.50;;;47.60;;
31091;SDS011;67728;53.122;12.776;2023-04-12T06:03:08;250.00;;;47.63;;
31091;SDS011;67728;53.122;12.776;2023-04-12T06:04:41;251.47;;;47.70;;
31091;SDS011;67728;53.122;12.776;2023-04-12T06:06:13;251.57;;;47.37;;
31091;SDS011;67728;53.122;12.776;2023-04-12T06:07:45;251.07;;;47.67;;
31091;SDS011;67728;53.122;12.776;2023-04-12T06:09:17;255.13;;;47.63;;
31091;SDS011;67728;53.122;12.776;2023-04-12T06:10:48;249.30;;;47.60;;
31091;SDS011;67728;53.122;12.776;2023-04-12T06:12:20;248.80;;;52.33;;
31091;SDS011;67728;53.122;12.776;2023-04-12T06:13:51;254.57;;;47.67;;
31091;SDS011;67728;53.122;12.776;2023-04-12T06:15:23;250.30;;;47.30;;
31091;SDS011;67728;53.122;12.776;2023-04-12T06:16:55;252.80;;;47.57;;
31091;SDS011;67728;53.122;12.776;2023-04-12T06:18:26;248.57;;;47.00;;
31091;SDS011;67728;53.122;12.776;2023-04-12T06:19:59;252.70;;;47.60;;
31091;SDS011;67728;53.122;12.776;2023-04-12T06:21:31;259.03;;;48.77;;
31091;SDS011;67728;53.122;12.776;2023-04-12T06:23:03;258.83;;;48.50;;
31091;SDS011;67728;53.122;12.776;2023-04-12T06:24:35;260.13;;;49.10;;
31091;SDS011;67728;53.122;12.776;2023-04-12T06:26:06;260.20;;;48.90;;
31091;SDS011;67728;53.122;12.776;2023-04-12T06:27:38;260.47;;;48.50;;
31091;SDS011;67728;53.122;12.776;2023-04-12T06:29:10;261.87;;;48.80;;
31091;SDS011;67728;53.122;12.776;2023-04-12T06:30:42;264.70;;;49.67;;
31091;SDS011;67728;53.122;12.776;2023-04-12T06:32:13;262.80;;;49.30;;
31091;SDS011;67728;53.122;12.776;2023-04-12T06:33:45;265.73;;;49.70;;
31091;SDS011;67728;53.122;12.776;2023-04-12T06:35:19;266.60;;;50.20;;
31091;SDS011;67728;53.122;12.776;2023-04-12T06:36:51;267.70;;;49.83;;
31091;SDS011;67728;53.122;12.776;2023-04-12T06:38:23;268.90;;;50.13;;
31091;SDS011;67728;53.122;12.776;2023-04-12T06:39:54;269.37;;;50.37;;
31091;SDS011;67728;53.122;12.776;2023-04-12T06:41:26;270.37;;;50.73;;
31091;SDS011;67728;53.122;12.776;2023-04-12T06:42:57;269.73;;;50.50;;
31091;SDS011;67728;53.122;12.776;2023-04-12T06:44:29;271.13;;;50.17;;
31091;SDS011;67728;53.122;12.776;2023-04-12T06:46:02;271.87;;;50.67;;
31091;SDS011;67728;53.122;12.776;2023-04-12T06:47:34;270.60;;;50.53;;
31091;SDS011;67728;53.122;12.776;2023-04-12T06:49:06;272.47;;;50.73;;
31091;SDS011;67728;53.122;12.776;2023-04-12T06:50:39;271.87;;;50.73;;
31091;SDS011;67728;53.122;12.776;2023-04-12T06:52:10;276.10;;;51.30;;
31091;SDS011;67728;53.122;12.776;2023-04-12T06:53:42;279.40;;;51.70;;
31091;SDS011;67728;53.122;12.776;2023-04-12T06:55:14;279.00;;;51.90;;
31091;SDS011;67728;53.122;12.776;2023-04-12T06:56:45;283.43;;;52.13;;
31091;SDS011;67728;53.122;12.776;2023-04-12T06:58:17;275.93;;;50.90;;
31091;SDS011;67728;53.122;12.776;2023-04-12T06:59:49;287.48;;;54.22;;
31091;SDS011;67728;53.122;12.776;2023-04-12T07:01:20;286.40;;;53.23;;
31091;SDS011;67728;53.122;12.776;2023-04-12T07:02:52;281.90;;;52.07;;
31091;SDS011;67728;53.122;12.776;2023-04-12T07:04:24;283.07;;;52.23;;
31091;SDS011;67728;53.122;12.776;2023-04-12T07:05:57;282.03;;;52.57;;
31091;SDS011;67728;53.122;12.776;2023-04-12T07:07:28;279.00;;;53.80;;
31091;SDS011;67728;53.122;12.776;2023-04-12T07:09:00;279.33;;;53.57;;
31091;SDS011;67728;53.122;12.776;2023-04-12T07:10:32;283.27;;;54.40;;
31091;SDS011;67728;53.122;12.776;2023-04-12T07:12:05;282.73;;;53.33;;
31091;SDS011;67728;53.122;12.776;2023-04-12T07:13:37;284.00;;;53.20;;
31091;SDS011;67728;53.122;12.776;2023-04-12T07:15:08;281.93;;;53.00;;
31091;SDS011;67728;53.122;12.776;2023-04-12T07:16:41;286.03;;;53.67;;
31091;SDS011;67728;53.122;12.776;2023-04-12T07:18:12;280.70;;;53.57;;
31091;SDS011;67728;53.122;12.776;2023-04-12T07:19:44;283.57;;;54.30;;
31091;SDS011;67728;53.122;12.776;2023-04-12T07:21:17;294.40;;;56.83;;
31091;SDS011;67728;53.122;12.776;2023-04-12T07:22:48;289.23;;;55.10;;
31091;SDS011;67728;53.122;12.776;2023-04-12T07:24:20;285.80;;;53.97;;
31091;SDS011;67728;53.122;12.776;2023-04-12T07:25:52;283.10;;;54.87;;
31091;SDS011;67728;53.122;12.776;2023-04-12T07:27:28;283.43;;;55.60;;
31091;SDS011;67728;53.122;12.776;2023-04-12T07:29:00;285.30;;;55.33;;
31091;SDS011;67728;53.122;12.776;2023-04-12T07:30:32;285.57;;;53.03;;
31091;SDS011;67728;53.122;12.776;2023-04-12T07:32:04;286.90;;;56.13;;
31091;SDS011;67728;53.122;12.776;2023-04-12T07:33:36;292.50;;;54.63;;
31091;SDS011;67728;53.122;12.776;2023-04-12T07:35:07;292.03;;;56.63;;
31091;SDS011;67728;53.122;12.776;2023-04-12T07:36:41;291.53;;;57.30;;
31091;SDS011;67728;53.122;12.776;2023-04-12T07:38:13;291.67;;;58.47;;
31091;SDS011;67728;53.122;12.776;2023-04-12T07:39:44;291.40;;;58.20;;
31091;SDS011;67728;53.122;12.776;2023-04-12T07:41:16;290.13;;;57.63;;
31091;SDS011;67728;53.122;12.776;2023-04-12T07:42:48;287.77;;;60.13;;
31091;SDS011;67728;53.122;12.776;2023-04-12T07:44:20;289.00;;;57.23;;
31091;SDS011;67728;53.122;12.776;2023-04-12T07:45:52;294.57;;;58.30;;
31091;SDS011;67728;53.122;12.776;2023-04-12T07:47:24;292.57;;;57.80;;
31091;SDS011;67728;53.122;12.776;2023-04-12T07:48:56;290.13;;;57.77;;
31091;SDS011;67728;53.122;12.776;2023-04-12T07:50:27;292.67;;;57.57;;
31091;SDS011;67728;53.122;12.776;2023-04-12T07:52:00;291.03;;;57.77;;
31091;SDS011;67728;53.122;12.776;2023-04-12T07:53:34;291.53;;;62.90;;
31091;SDS011;67728;53.122;12.776;2023-04-12T07:55:05;291.77;;;58.43;;
31091;SDS011;67728;53.122;12.776;2023-04-12T07:56:38;296.33;;;61.33;;
31091;SDS011;67728;53.122;12.776;2023-04-12T07:58:10;295.60;;;59.30;;
31091;SDS011;67728;53.122;12.776;2023-04-12T07:59:41;297.20;;;61.23;;
31091;SDS011;67728;53.122;12.776;2023-04-12T08:01:13;296.33;;;61.73;;
31091;SDS011;67728;53.122;12.776;2023-04-12T08:02:46;294.97;;;60.27;;
31091;SDS011;67728;53.122;12.776;2023-04-12T08:04:17;296.83;;;60.50;;
31091;SDS011;67728;53.122;12.776;2023-04-12T08:05:49;296.60;;;59.47;;
31091;SDS011;67728;53.122;12.776;2023-04-12T08:07:24;295.73;;;61.17;;
31091;SDS011;67728;53.122;12.776;2023-04-12T08:08:57;294.67;;;60.17;;
31091;SDS011;67728;53.122;12.776;2023-04-12T08:10:28;294.30;;;60.20;;
31091;SDS011;67728;53.122;12.776;2023-04-12T08:12:01;300.70;;;71.07;;
31091;SDS011;67728;53.122;12.776;2023-04-12T08:13:32;296.20;;;60.20;;
31091;SDS011;67728;53.122;12.776;2023-04-12T08:15:05;301.03;;;63.60;;
31091;SDS011;67728;53.122;12.776;2023-04-12T08:16:37;305.40;;;80.90;;
31091;SDS011;67728;53.122;12.776;2023-04-12T08:18:09;300.13;;;59.67;;
31091;SDS011;67728;53.122;12.776;2023-04-12T08:19:41;298.87;;;61.27;;
31091;SDS011;67728;53.122;12.776;2023-04-12T08:21:13;299.77;;;61.37;;
31091;SDS011;67728;53.122;12.776;2023-04-12T08:22:46;299.87;;;62.87;;
31091;SDS011;67728;53.122;12.776;2023-04-12T08:24:19;301.93;;;61.00;;
31091;SDS011;67728;53.122;12.776;2023-04-12T08:25:51;304.27;;;62.10;;
31091;SDS011;67728;53.122;12.776;2023-04-12T08:27:28;302.70;;;61.03;;
31091;SDS011;67728;53.122;12.776;2023-04-12T08:29:00;301.77;;;60.30;;
31091;SDS011;67728;53.122;12.776;2023-04-12T08:30:32;303.87;;;62.73;;
31091;SDS011;67728;53.122;12.776;2023-04-12T08:32:04;306.90;;;63.87;;
31091;SDS011;67728;53.122;12.776;2023-04-12T08:33:36;302.63;;;60.93;;
31091;SDS011;67728;53.122;12.776;2023-04-12T08:35:08;307.77;;;63.47;;
31091;SDS011;67728;53.122;12.776;2023-04-12T08:36:40;310.53;;;64.63;;
31091;SDS011;67728;53.122;12.776;2023-04-12T08:38:13;300.93;;;63.10;;
31091;SDS011;67728;53.122;12.776;2023-04-12T08:39:45;307.85;;;63.45;;
31091;SDS011;67728;53.122;12.776;2023-04-12T08:41:17;306.53;;;65.97;;
31091;SDS011;67728;53.122;12.776;2023-04-12T08:42:49;308.43;;;63.53;;
31091;SDS011;67728;53.122;12.776;2023-04-12T08:44:27;309.03;;;63.67;;
31091;SDS011;67728;53.122;12.776;2023-04-12T08:46:06;310.07;;;63.60;;
31091;SDS011;67728;53.122;12.776;2023-04-12T08:47:38;310.47;;;63.83;;